Time;durP1;ratioP1;P1;durP2;ratioP2;P2;SDS_P1;SDS_P2;PMS_P1;PMS_P2;Temp;Humidity;BMP_temperature;BMP_pressure;BME280_temperature;BME280_humidity;BME280_pressure;Samples;Min_cycle;Max_cycle;Signal;HPM_P1;HPM_P2
2021/12/17 00:00:41;;;;;;;18.80;12.25;;;3.20;99.90;;;;;;1858469;76;21473;-73
2021/12/17 00:05:51;;;;;;;19.10;12.88;;;3.30;99.90;;;;;;1872228;76;21122;-75
2021/12/17 00:08:12;;;;;;;20.75;13.25;;;3.40;99.90;;;;;;1864310;75;21123;-75
2021/12/17 00:10:38;;;;;;;15.63;11.88;;;3.30;99.90;;;;;;1856672;76;21160;-75
2021/12/17 00:13:04;;;;;;;29.07;13.20;;;3.30;99.90;;;;;;1869521;75;21164;-74
2021/12/17 00:15:30;;;;;;;17.45;12.60;;;3.40;99.90;;;;;;1875288;76;21093;-75
2021/12/17 00:18:03;;;;;;;19.60;12.82;;;3.50;99.90;;;;;;1882310;75;21160;-75
2021/12/17 00:51:07;;;;;;;18.65;12.33;;;3.50;99.90;;;;;;1872546;75;21070;-74
2021/12/17 00:53:06;;;;;;;21.80;13.00;;;3.40;99.90;;;;;;1873269;76;21508;-74
2021/12/17 00:55:32;;;;;;;20.25;12.78;;;3.40;99.90;;;;;;1872135;75;21098;-76
2021/12/17 00:57:58;;;;;;;25.02;14.03;;;3.40;99.90;;;;;;1872880;76;21164;-76
2021/12/17 01:00:25;;;;;;;26.70;13.50;;;3.40;99.90;;;;;;1864255;75;21086;-76
2021/12/17 01:02:51;;;;;;;20.62;14.00;;;3.50;99.90;;;;;;1861692;75;21212;-76
2021/12/17 01:05:17;;;;;;;24.80;14.47;;;3.40;99.90;;;;;;1867560;76;21051;-75
2021/12/17 01:07:43;;;;;;;21.90;13.88;;;3.30;99.90;;;;;;1859214;76;21159;-75
2021/12/17 01:10:09;;;;;;;25.75;14.70;;;3.30;99.90;;;;;;1878061;74;21155;-75
2021/12/17 01:12:35;;;;;;;21.75;14.18;;;3.30;99.90;;;;;;1855825;75;21094;-75
2021/12/17 01:15:01;;;;;;;19.90;12.65;;;3.30;99.90;;;;;;1866476;76;21056;-75
2021/12/17 01:17:30;;;;;;;22.13;12.90;;;3.30;99.90;;;;;;1864664;75;22014;-74
2021/12/17 01:20:26;;;;;;;18.32;13.30;;;3.40;99.90;;;;;;1881244;76;21216;-75
2021/12/17 01:22:56;;;;;;;19.00;12.78;;;3.40;99.90;;;;;;1864513;75;21136;-73
2021/12/17 01:25:19;;;;;;;18.70;12.45;;;3.30;99.90;;;;;;1865507;76;21106;-75
2021/12/17 01:35:52;;;;;;;19.00;13.00;;;3.60;99.90;;;;;;1870416;76;21148;-73
2021/12/17 01:43:28;;;;;;;;;;;3.60;99.90;;;;;;1881563;75;21155;-74
2021/12/17 01:45:54;;;;;;;17.12;11.97;;;3.60;99.90;;;;;;1856607;76;20332;-73
2021/12/17 01:48:26;;;;;;;19.60;13.03;;;3.60;99.90;;;;;;1865254;76;21055;-73
2021/12/17 02:01:41;;;;;;;17.20;12.53;;;3.70;99.90;;;;;;1870660;76;21082;-74
2021/12/17 02:04:07;;;;;;;16.65;11.35;;;3.70;99.90;;;;;;1880230;76;21162;-74
2021/12/17 02:06:38;;;;;;;17.02;11.88;;;3.70;99.90;;;;;;1876049;76;21082;-73
2021/12/17 02:09:04;;;;;;;21.42;12.20;;;3.70;99.90;;;;;;1881616;75;21122;-73
2021/12/17 02:19:47;;;;;;;21.00;12.33;;;3.80;99.90;;;;;;1877864;75;21070;-74
2021/12/17 02:33:08;;;;;;;19.82;12.35;;;3.90;99.90;;;;;;1871703;76;21108;-72
2021/12/17 02:35:40;;;;;;;19.52;11.30;;;3.90;99.90;;;;;;1870989;76;21648;-73
2021/12/17 02:38:03;;;;;;;16.25;11.15;;;4.00;99.90;;;;;;1874413;75;21102;-73
2021/12/17 02:45:50;;;;;;;18.10;10.85;;;4.10;99.90;;;;;;1863183;76;21511;-73
2021/12/17 02:48:16;;;;;;;19.07;11.85;;;4.10;99.90;;;;;;1869925;76;21176;-73
2021/12/17 02:50:42;;;;;;;25.05;12.20;;;4.20;99.90;;;;;;1865610;76;21117;-73
2021/12/17 02:53:08;;;;;;;23.12;11.38;;;4.00;99.90;;;;;;1869184;75;21167;-72
2021/12/17 02:55:34;;;;;;;15.30;11.28;;;4.10;99.90;;;;;;1877763;75;21086;-74
2021/12/17 02:58:00;;;;;;;17.67;11.33;;;4.10;99.90;;;;;;1868853;76;21169;-74
2021/12/17 03:00:26;;;;;;;20.08;12.23;;;4.10;99.90;;;;;;1880358;76;21113;-73
2021/12/17 03:02:53;;;;;;;18.82;11.40;;;4.20;99.90;;;;;;1873303;76;21094;-74
2021/12/17 03:05:19;;;;;;;14.78;10.88;;;4.10;99.90;;;;;;1865769;76;21170;-75
2021/12/17 03:07:47;;;;;;;15.08;11.20;;;4.10;99.90;;;;;;1871709;76;21095;-74
2021/12/17 03:10:14;;;;;;;18.42;12.13;;;4.10;99.90;;;;;;1865589;75;21110;-73
2021/12/17 03:15:48;;;;;;;19.17;11.70;;;4.10;99.90;;;;;;1880029;76;21226;-73
2021/12/17 03:25:41;;;;;;;16.05;11.03;;;4.20;99.90;;;;;;1866927;76;21148;-75
2021/12/17 03:28:07;;;;;;;18.57;11.65;;;4.30;99.90;;;;;;1884835;75;21094;-74
2021/12/17 03:30:33;;;;;;;20.68;11.97;;;4.30;99.90;;;;;;1870349;76;21199;-73
2021/12/17 03:32:59;;;;;;;20.27;12.58;;;4.20;99.90;;;;;;1880029;76;21172;-73
2021/12/17 03:35:25;;;;;;;16.32;11.83;;;4.20;99.90;;;;;;1872053;76;21210;-74
2021/12/17 03:37:51;;;;;;;16.02;11.95;;;4.10;99.90;;;;;;1873560;75;21159;-74
2021/12/17 03:40:19;;;;;;;18.00;11.68;;;4.10;99.90;;;;;;1878111;75;21100;-74
2021/12/17 03:42:48;;;;;;;18.73;12.90;;;4.00;99.90;;;;;;1871578;76;21126;-74
2021/12/17 03:45:13;;;;;;;21.27;12.23;;;4.00;99.90;;;;;;1878122;76;21159;-75
2021/12/17 03:47:39;;;;;;;17.30;11.28;;;3.90;99.90;;;;;;1864039;76;21159;-73
2021/12/17 03:50:05;;;;;;;16.30;11.65;;;4.00;99.90;;;;;;1883796;74;21148;-74
2021/12/17 03:52:31;;;;;;;19.62;12.15;;;3.90;99.90;;;;;;1878666;75;21117;-74
2021/12/17 03:54:58;;;;;;;19.48;12.07;;;3.90;99.90;;;;;;1870444;76;21094;-73
2021/12/17 03:57:24;;;;;;;18.27;11.95;;;3.90;99.90;;;;;;1875227;76;21099;-74
2021/12/17 03:59:50;;;;;;;15.70;11.63;;;4.00;99.90;;;;;;1876663;76;21152;-74
2021/12/17 04:02:16;;;;;;;14.73;10.45;;;4.00;99.90;;;;;;1882030;76;21172;-73
2021/12/17 04:04:42;;;;;;;18.67;12.00;;;4.10;99.90;;;;;;1875822;76;21578;-74
2021/12/17 04:07:08;;;;;;;19.57;11.25;;;4.10;99.90;;;;;;1872627;76;21547;-74
2021/12/17 04:09:34;;;;;;;14.60;10.15;;;4.10;99.90;;;;;;1871410;76;21497;-73
2021/12/17 04:12:02;;;;;;;22.00;10.85;;;4.20;99.90;;;;;;1869756;75;21165;-73
2021/12/17 04:14:43;;;;;;;13.60;10.53;;;4.30;99.90;;;;;;1874988;75;21543;-75
2021/12/17 04:17:05;;;;;;;21.02;12.60;;;4.20;99.90;;;;;;1863139;76;21093;-74
2021/12/17 04:19:30;;;;;;;18.87;11.28;;;4.20;99.90;;;;;;1874335;76;21067;-74
2021/12/17 04:21:56;;;;;;;17.45;11.28;;;4.30;99.90;;;;;;1873396;75;21160;-73
2021/12/17 04:24:22;;;;;;;14.75;10.40;;;4.30;99.90;;;;;;1882989;75;21098;-74
2021/12/17 04:26:48;;;;;;;15.28;10.58;;;4.50;99.90;;;;;;1880588;75;21086;-74
2021/12/17 04:29:16;;;;;;;17.15;10.82;;;4.50;99.90;;;;;;1877224;76;21140;-74
2021/12/17 04:31:42;;;;;;;16.55;10.63;;;4.60;99.90;;;;;;1888736;75;21089;-73
2021/12/17 04:34:11;;;;;;;14.83;10.70;;;4.60;99.90;;;;;;1879581;75;21089;-74
2021/12/17 04:36:37;;;;;;;16.62;10.93;;;4.60;99.90;;;;;;1881153;74;21164;-74
2021/12/17 04:39:04;;;;;;;16.05;11.18;;;4.50;99.90;;;;;;1869203;75;21276;-74
2021/12/17 04:44:23;;;;;;;16.70;11.63;;;4.50;99.90;;;;;;1867058;76;21094;-74
2021/12/17 04:46:53;;;;;;;22.48;14.35;;;4.60;99.90;;;;;;1862945;76;21663;-74
2021/12/17 04:57:34;;;;;;;16.90;11.93;;;4.70;99.90;;;;;;1875500;76;21491;-74
2021/12/17 05:00:01;;;;;;;19.07;11.63;;;4.70;99.90;;;;;;1869280;75;21073;-74
2021/12/17 05:02:28;;;;;;;16.00;11.20;;;4.70;99.90;;;;;;1879350;75;21451;-73
2021/12/17 05:04:54;;;;;;;21.23;12.33;;;4.80;99.90;;;;;;1886157;76;21067;-73
2021/12/17 05:07:23;;;;;;;21.62;12.65;;;4.80;99.90;;;;;;1867710;76;21533;-74
2021/12/17 05:10:04;;;;;;;21.57;12.43;;;4.60;99.90;;;;;;1858172;76;21203;-73
2021/12/17 05:20:52;;;;;;;22.27;12.58;;;4.60;99.90;;;;;;1877911;76;21214;-75
2021/12/17 05:23:03;;;;;;;26.20;12.98;;;4.70;99.90;;;;;;1859691;76;21470;-74
2021/12/17 05:25:29;;;;;;;17.32;12.00;;;4.80;99.90;;;;;;1864090;76;21506;-73
2021/12/17 05:27:55;;;;;;;20.95;13.70;;;4.90;99.90;;;;;;1860656;76;21159;-74
2021/12/17 05:30:21;;;;;;;22.25;12.33;;;4.90;99.90;;;;;;1874882;75;21101;-74
2021/12/17 05:32:47;;;;;;;32.03;13.55;;;4.90;99.90;;;;;;1884555;75;21094;-74
2021/12/17 05:35:14;;;;;;;21.33;13.05;;;4.90;99.90;;;;;;1865381;76;21098;-74
2021/12/17 05:37:40;;;;;;;21.82;13.28;;;4.90;99.90;;;;;;1872304;76;21905;-74
2021/12/17 05:40:06;;;;;;;20.85;12.45;;;4.80;99.90;;;;;;1877189;76;21631;-75
2021/12/17 05:42:32;;;;;;;19.57;13.75;;;4.80;99.90;;;;;;1876453;76;21555;-74
2021/12/17 05:45:07;;;;;;;25.00;12.37;;;4.70;99.90;;;;;;1884402;74;21494;-74
2021/12/17 05:47:26;;;;;;;29.52;12.68;;;4.70;99.90;;;;;;1873560;74;21115;-75
2021/12/17 05:49:52;;;;;;;16.75;12.15;;;4.80;99.90;;;;;;1868744;76;21163;-74
2021/12/17 05:52:18;;;;;;;21.90;12.45;;;4.80;99.90;;;;;;1868055;76;21159;-75
2021/12/17 05:54:44;;;;;;;18.62;12.43;;;4.90;99.90;;;;;;1850554;76;21057;-75
2021/12/17 05:57:10;;;;;;;24.67;13.55;;;4.90;99.90;;;;;;1873109;76;21094;-75
2021/12/17 05:59:36;;;;;;;16.62;12.28;;;4.90;99.90;;;;;;1869085;76;21173;-75
2021/12/17 06:02:08;;;;;;;23.45;12.98;;;4.90;99.90;;;;;;1883666;75;21482;-75
2021/12/17 06:04:30;;;;;;;21.77;13.50;;;4.90;99.90;;;;;;1872783;76;21093;-75
2021/12/17 06:06:56;;;;;;;24.90;12.88;;;4.90;99.90;;;;;;1868350;76;21187;-75
2021/12/17 06:09:23;;;;;;;18.60;12.25;;;4.80;99.90;;;;;;1859354;76;21147;-75
2021/12/17 06:11:49;;;;;;;21.68;12.45;;;4.80;99.90;;;;;;1880714;76;21063;-76
2021/12/17 06:14:15;;;;;;;16.85;12.05;;;4.80;99.90;;;;;;1864324;76;21197;-73
2021/12/17 06:16:41;;;;;;;24.45;12.47;;;4.70;99.90;;;;;;1885119;76;21172;-74
2021/12/17 06:19:09;;;;;;;17.02;12.43;;;4.80;99.90;;;;;;1886006;76;21164;-74
2021/12/17 06:21:35;;;;;;;27.67;13.85;;;4.80;99.90;;;;;;1868666;75;21210;-74
2021/12/17 06:24:01;;;;;;;26.50;13.65;;;4.80;99.90;;;;;;1866779;76;21159;-75
2021/12/17 06:26:28;;;;;;;20.23;12.63;;;4.80;99.90;;;;;;1884102;76;21089;-75
2021/12/17 06:28:54;;;;;;;17.27;11.93;;;4.80;99.90;;;;;;1883597;75;21273;-78
2021/12/17 06:31:20;;;;;;;20.55;13.62;;;4.80;99.90;;;;;;1861038;76;21212;-78
2021/12/17 06:33:47;;;;;;;24.05;13.45;;;4.80;99.90;;;;;;1880101;76;21083;-78
2021/12/17 06:36:13;;;;;;;22.82;13.53;;;4.80;99.90;;;;;;1867144;76;21090;-78
2021/12/17 06:38:39;;;;;;;22.65;12.82;;;4.80;99.90;;;;;;1867910;76;21203;-78
2021/12/17 06:41:05;;;;;;;28.50;13.78;;;4.90;99.90;;;;;;1873457;76;21163;-78
2021/12/17 06:43:39;;;;;;;31.23;13.85;;;5.00;99.90;;;;;;1887568;75;21051;-77
2021/12/17 06:46:31;;;;;;;24.05;14.10;;;4.90;99.90;;;;;;1880016;74;21479;-77
2021/12/17 06:48:31;;;;;;;23.92;14.53;;;5.00;99.90;;;;;;1876599;75;21058;-76
2021/12/17 06:59:31;;;;;;;29.15;14.65;;;4.90;99.90;;;;;;1884923;75;21533;-78
2021/12/17 07:17:08;;;;;;;;;;;4.80;99.90;;;;;;1871739;75;21151;-75
2021/12/17 07:17:09;;;;;;;11.20;8.08;;;4.80;99.90;;;;;;1863772;76;21077;-75
2021/12/17 07:22:29;;;;;;;8.23;6.83;;;4.80;99.90;;;;;;1877798;76;21168;-75
2021/12/17 07:31:48;;;;;;;9.33;6.45;;;5.00;99.90;;;;;;1875157;76;21466;-79
2021/12/17 07:33:07;;;;;;;6.47;5.78;;;5.00;99.90;;;;;;1857866;75;21077;-78
2021/12/17 07:40:30;;;;;;;7.90;5.60;;;5.10;99.90;;;;;;1851193;76;21091;-74
2021/12/17 07:42:56;;;;;;;5.40;4.87;;;5.10;99.90;;;;;;1882045;76;21506;-74
2021/12/17 07:45:23;;;;;;;8.68;5.45;;;5.10;99.90;;;;;;1888296;76;21089;-74
2021/12/17 07:47:49;;;;;;;8.05;6.08;;;5.10;99.90;;;;;;1872595;76;21172;-74
2021/12/17 07:52:59;;;;;;;5.67;4.72;;;5.10;99.90;;;;;;1875560;75;21160;-74
2021/12/17 07:55:25;;;;;;;8.88;5.10;;;5.10;99.90;;;;;;1871084;75;21085;-75
2021/12/17 07:57:51;;;;;;;8.75;4.95;;;5.10;99.90;;;;;;1885170;75;21099;-74
2021/12/17 08:00:17;;;;;;;5.78;4.85;;;5.10;99.90;;;;;;1887040;75;21148;-74
2021/12/17 08:02:43;;;;;;;5.53;4.65;;;5.00;99.90;;;;;;1859702;76;21162;-74
2021/12/17 08:05:10;;;;;;;6.37;5.03;;;5.00;99.90;;;;;;1863968;75;21055;-75
2021/12/17 08:07:36;;;;;;;5.15;4.33;;;5.00;99.90;;;;;;1878381;76;21155;-74
2021/12/17 08:10:02;;;;;;;9.80;5.17;;;4.90;99.90;;;;;;1866527;76;21156;-74
2021/12/17 08:12:28;;;;;;;6.28;5.10;;;4.90;99.90;;;;;;1876575;74;21143;-75
2021/12/17 08:14:54;;;;;;;6.55;5.30;;;4.90;99.90;;;;;;1868192;75;21064;-75
2021/12/17 08:17:46;;;;;;;9.38;5.10;;;4.90;99.90;;;;;;1873301;76;21067;-74
2021/12/17 08:25:41;;;;;;;5.35;4.85;;;5.00;99.90;;;;;;1869896;75;21200;-74
2021/12/17 08:28:05;;;;;;;5.40;4.37;;;5.00;99.90;;;;;;1868166;76;21095;-73
2021/12/17 08:30:38;;;;;;;6.22;4.53;;;5.20;99.90;;;;;;1876923;75;21086;-74
2021/12/17 08:32:58;;;;;;;6.58;5.12;;;5.20;99.90;;;;;;1870940;76;21059;-74
2021/12/17 08:35:24;;;;;;;6.53;4.75;;;5.40;99.90;;;;;;1861432;75;21089;-73
2021/12/17 08:37:51;;;;;;;6.40;4.95;;;5.50;99.90;;;;;;1879206;76;21553;-73
2021/12/17 08:40:20;;;;;;;6.37;4.92;;;5.60;99.90;;;;;;1878810;76;21486;-76
2021/12/17 08:42:47;;;;;;;5.37;4.58;;;5.80;99.90;;;;;;1875187;76;21435;-74
2021/12/17 08:45:14;;;;;;;5.30;4.60;;;5.90;99.90;;;;;;1872549;74;21679;-74
2021/12/17 08:47:40;;;;;;;6.72;4.42;;;6.20;99.90;;;;;;1882678;75;21204;-72
2021/12/17 08:50:08;;;;;;;5.17;4.40;;;6.40;99.90;;;;;;1863265;76;21553;-74
2021/12/17 08:52:34;;;;;;;7.55;4.25;;;6.50;99.90;;;;;;1873480;74;21221;-74
2021/12/17 08:55:00;;;;;;;4.72;4.30;;;6.70;99.90;;;;;;1868988;76;21216;-73
2021/12/17 08:57:27;;;;;;;5.20;4.40;;;7.00;99.90;;;;;;1885955;75;21055;-74
2021/12/17 08:59:56;;;;;;;5.72;4.28;;;7.20;99.90;;;;;;1870315;76;21104;-73
2021/12/17 09:02:21;;;;;;;5.85;4.62;;;7.40;99.90;;;;;;1875258;75;21134;-73
2021/12/17 09:04:47;;;;;;;6.55;5.10;;;7.60;99.90;;;;;;1881607;74;21097;-74
2021/12/17 09:07:14;;;;;;;5.47;4.58;;;7.80;99.90;;;;;;1865536;76;21089;-76
2021/12/17 09:09:41;;;;;;;6.62;5.22;;;8.00;99.90;;;;;;1863953;75;21070;-76
2021/12/17 09:12:07;;;;;;;7.33;5.22;;;7.90;99.90;;;;;;1870767;75;21069;-77
2021/12/17 09:14:35;;;;;;;10.68;5.20;;;7.90;99.90;;;;;;1881725;75;21087;-76
2021/12/17 09:17:01;;;;;;;7.00;5.85;;;7.70;99.90;;;;;;1853072;76;21108;-76
2021/12/17 09:19:27;;;;;;;6.67;5.30;;;7.70;99.90;;;;;;1870956;76;21439;-76
2021/12/17 09:21:53;;;;;;;9.85;5.12;;;7.90;99.90;;;;;;1880010;75;21551;-76
2021/12/17 09:24:20;;;;;;;11.78;5.35;;;8.10;99.90;;;;;;1883697;76;21149;-76
2021/12/17 09:26:46;;;;;;;7.15;5.22;;;8.00;99.90;;;;;;1875163;76;21083;-76
2021/12/17 09:29:12;;;;;;;6.62;5.22;;;7.70;99.90;;;;;;1878675;76;21234;-76
2021/12/17 09:31:40;;;;;;;6.70;4.95;;;7.90;99.90;;;;;;1879690;75;21207;-76
2021/12/17 09:34:06;;;;;;;8.80;5.60;;;8.00;99.90;;;;;;1878019;75;21548;-75
2021/12/17 09:36:33;;;;;;;8.10;5.87;;;8.30;99.90;;;;;;1861814;76;21564;-74
2021/12/17 09:38:59;;;;;;;9.63;6.05;;;8.60;99.90;;;;;;1869501;74;21101;-74
2021/12/17 09:41:30;;;;;;;8.78;4.85;;;8.80;99.90;;;;;;1875872;76;21481;-74
2021/12/17 09:43:54;;;;;;;6.20;4.87;;;8.90;99.90;;;;;;1869511;75;21130;-75
2021/12/17 09:46:20;;;;;;;5.35;4.03;;;8.70;99.90;;;;;;1882707;74;21083;-74
2021/12/17 09:48:46;;;;;;;8.05;4.87;;;9.00;99.90;;;;;;1875189;75;21249;-75
2021/12/17 09:51:20;;;;;;;6.83;4.40;;;9.00;99.90;;;;;;1866040;76;21083;-77
2021/12/17 09:53:40;;;;;;;5.37;4.28;;;9.30;99.90;;;;;;1867896;76;21102;-77
2021/12/17 09:56:07;;;;;;;4.28;3.87;;;9.40;99.90;;;;;;1865375;76;21163;-76
2021/12/17 09:58:33;;;;;;;4.45;4.05;;;9.50;99.90;;;;;;1885228;75;21164;-77
2021/12/17 10:00:59;;;;;;;5.90;4.12;;;9.50;99.90;;;;;;1867406;76;21042;-77
2021/12/17 10:03:25;;;;;;;11.30;5.12;;;9.80;99.90;;;;;;1880070;75;21155;-77
2021/12/17 10:05:51;;;;;;;7.35;4.80;;;9.70;99.90;;;;;;1866206;76;21156;-77
2021/12/17 10:08:19;;;;;;;6.03;4.78;;;9.50;99.90;;;;;;1870269;75;21145;-77
2021/12/17 10:10:45;;;;;;;7.25;4.60;;;9.30;99.90;;;;;;1865832;75;21088;-77
2021/12/17 10:13:11;;;;;;;6.05;4.72;;;9.60;99.90;;;;;;1876178;76;21165;-76
2021/12/17 10:15:37;;;;;;;5.35;4.45;;;9.80;99.90;;;;;;1881332;75;21098;-77
2021/12/17 10:18:03;;;;;;;6.22;4.17;;;9.90;99.90;;;;;;1874718;76;21498;-76
2021/12/17 10:20:29;;;;;;;5.37;4.40;;;10.30;99.90;;;;;;1870339;76;21499;-76
2021/12/17 10:22:55;;;;;;;6.55;4.62;;;10.40;99.90;;;;;;1866711;76;21612;-75
2021/12/17 10:25:22;;;;;;;5.40;4.50;;;10.20;99.90;;;;;;1866366;75;21282;-77
2021/12/17 10:27:48;;;;;;;7.03;4.40;;;10.00;99.90;;;;;;1870768;75;21506;-77
2021/12/17 10:30:14;;;;;;;5.80;4.55;;;10.20;99.90;;;;;;1877343;76;21055;-77
2021/12/17 10:32:40;;;;;;;5.45;4.67;;;10.40;99.90;;;;;;1875071;75;21149;-77
2021/12/17 10:35:06;;;;;;;8.75;4.67;;;10.50;99.90;;;;;;1864555;75;21098;-77
2021/12/17 10:37:32;;;;;;;4.92;4.42;;;10.60;99.90;;;;;;1869440;75;21082;-78
2021/12/17 10:39:58;;;;;;;4.87;4.47;;;10.40;99.90;;;;;;1868730;74;21218;-77
2021/12/17 10:42:26;;;;;;;5.72;4.80;;;10.10;99.90;;;;;;1873825;75;21059;-77
2021/12/17 10:44:52;;;;;;;8.15;5.00;;;10.30;99.90;;;;;;1878072;75;21175;-77
2021/12/17 10:47:31;;;;;;;6.00;4.67;;;10.50;99.90;;;;;;1880635;76;21086;-76
2021/12/17 10:49:46;;;;;;;6.58;4.70;;;10.90;99.90;;;;;;1869541;76;21094;-77
2021/12/17 10:52:15;;;;;;;7.65;3.77;;;11.00;99.90;;;;;;1881421;75;21484;-76
2021/12/17 10:54:40;;;;;;;5.15;4.03;;;10.80;99.90;;;;;;1867277;75;21204;-76
2021/12/17 10:57:06;;;;;;;5.65;3.98;;;10.80;99.90;;;;;;1865900;74;21097;-77
2021/12/17 10:59:34;;;;;;;7.45;4.30;;;10.90;99.90;;;;;;1890598;76;21167;-76
2021/12/17 11:02:05;;;;;;;6.35;4.72;;;10.70;99.90;;;;;;1874836;75;21102;-75
2021/12/17 11:04:29;;;;;;;4.83;3.60;;;10.80;99.90;;;;;;1862022;75;21102;-74
2021/12/17 11:07:04;;;;;;;4.67;4.20;;;10.90;99.90;;;;;;1864764;75;21046;-76
2021/12/17 11:09:24;;;;;;;6.85;3.83;;;11.20;99.90;;;;;;1862986;75;21483;-76
2021/12/17 11:11:54;;;;;;;5.20;4.22;;;11.00;99.90;;;;;;1867219;76;21277;-77
2021/12/17 11:14:18;;;;;;;3.90;3.50;;;11.10;99.90;;;;;;1871551;75;21144;-76
2021/12/17 11:16:44;;;;;;;4.33;3.95;;;10.90;99.90;;;;;;1886359;75;21063;-76
2021/12/17 11:19:11;;;;;;;5.55;3.70;;;11.20;99.90;;;;;;1879227;75;21069;-76
2021/12/17 11:21:37;;;;;;;4.00;3.60;;;11.70;99.90;;;;;;1875008;75;21148;-76
2021/12/17 11:24:03;;;;;;;4.10;3.50;;;12.00;99.90;;;;;;1870045;76;21156;-77
2021/12/17 11:26:29;;;;;;;5.15;3.67;;;11.70;99.90;;;;;;1840711;76;21059;-76
2021/12/17 11:29:00;;;;;;;5.97;4.00;;;11.50;99.90;;;;;;1883746;75;21163;-76
2021/12/17 11:31:23;;;;;;;5.37;4.55;;;11.90;99.90;;;;;;1879732;76;21208;-75
2021/12/17 11:33:49;;;;;;;4.20;3.80;;;12.00;99.90;;;;;;1878231;76;21159;-76
2021/12/17 11:36:18;;;;;;;6.58;4.40;;;12.40;99.90;;;;;;1884065;74;21059;-75
2021/12/17 11:38:44;;;;;;;6.85;4.35;;;12.10;99.90;;;;;;1874575;74;21098;-75
2021/12/17 11:41:12;;;;;;;4.72;4.03;;;12.20;99.90;;;;;;1870975;75;21495;-76
2021/12/17 11:43:47;;;;;;;7.97;4.25;;;12.00;99.90;;;;;;1879070;76;21175;-76
2021/12/17 11:46:08;;;;;;;7.45;4.00;;;12.20;99.90;;;;;;1886487;75;21112;-74
2021/12/17 11:48:41;;;;;;;5.42;4.47;;;12.20;99.90;;;;;;1875260;75;21368;-74
2021/12/17 11:51:03;;;;;;;5.58;4.35;;;12.30;99.90;;;;;;1869567;75;21482;-75
2021/12/17 11:53:29;;;;;;;8.78;4.37;;;12.20;99.90;;;;;;1875192;76;21816;-75
2021/12/17 11:55:57;;;;;;;6.40;4.80;;;12.20;99.90;;;;;;1849801;76;21223;-76
2021/12/17 11:58:23;;;;;;;5.67;4.47;;;11.90;99.90;;;;;;1867348;75;21522;-75
2021/12/17 12:00:49;;;;;;;5.40;4.83;;;11.70;99.90;;;;;;1873604;75;21084;-76
2021/12/17 12:03:15;;;;;;;8.10;4.97;;;11.70;99.90;;;;;;1859560;76;21160;-74
2021/12/17 12:05:42;;;;;;;5.50;4.50;;;12.40;99.90;;;;;;1876684;76;21225;-76
2021/12/17 12:08:08;;;;;;;7.78;4.35;;;12.40;99.90;;;;;;1876371;76;21094;-75
2021/12/17 12:10:34;;;;;;;4.78;4.37;;;12.70;99.90;;;;;;1871645;75;21161;-75
2021/12/17 12:13:00;;;;;;;6.97;4.65;;;13.10;99.90;;;;;;1878771;76;21202;-74
2021/12/17 12:15:31;;;;;;;4.17;3.47;;;13.40;99.90;;;;;;1857242;75;21505;-74
2021/12/17 12:17:56;;;;;;;;;;;13.70;99.90;;;;;;1872824;76;21055;-74
2021/12/17 12:20:23;;;;;;;4.58;3.85;;;13.20;99.90;;;;;;1868545;76;20116;-76
2021/12/17 12:22:49;;;;;;;7.40;4.10;;;13.00;99.90;;;;;;1873483;76;21090;-74
2021/12/17 12:25:15;;;;;;;4.47;3.55;;;13.10;99.90;;;;;;1865701;76;21159;-74
2021/12/17 12:27:42;;;;;;;4.92;3.77;;;13.40;99.90;;;;;;1875053;75;21173;-77
2021/12/17 12:30:10;;;;;;;4.40;3.77;;;13.70;99.90;;;;;;1870059;76;21146;-78
2021/12/17 12:32:36;;;;;;;4.40;3.37;;;13.20;99.90;;;;;;1875487;76;21035;-75
2021/12/17 12:35:04;;;;;;;4.30;3.90;;;13.50;99.90;;;;;;1871400;76;21494;-76
2021/12/17 12:37:30;;;;;;;4.25;3.85;;;13.70;99.90;;;;;;1867267;75;21159;-72
2021/12/17 12:39:58;;;;;;;6.45;4.03;;;13.30;99.90;;;;;;1868935;76;21083;-75
2021/12/17 12:42:26;;;;;;;5.28;4.45;;;12.70;99.90;;;;;;1859930;76;21062;-77
2021/12/17 12:44:54;;;;;;;6.58;4.08;;;12.90;99.90;;;;;;1861438;75;21097;-77
2021/12/17 12:47:19;;;;;;;6.20;3.87;;;12.20;99.90;;;;;;1857861;75;21192;-77
2021/12/17 12:49:46;;;;;;;6.80;4.28;;;12.40;99.90;;;;;;1877138;76;21056;-79
2021/12/17 12:52:12;;;;;;;4.40;3.85;;;12.60;99.90;;;;;;1878827;75;21173;-78
2021/12/17 12:54:38;;;;;;;5.65;3.83;;;12.70;99.90;;;;;;1856281;76;21077;-78
2021/12/17 12:57:04;;;;;;;5.60;3.77;;;13.20;99.90;;;;;;1866736;75;21093;-77
2021/12/17 12:59:31;;;;;;;4.60;4.20;;;13.00;99.90;;;;;;1881280;76;21063;-79
2021/12/17 13:01:58;;;;;;;5.58;4.00;;;13.30;99.90;;;;;;1853758;76;21155;-79
2021/12/17 13:04:24;;;;;;;5.80;3.98;;;12.90;99.90;;;;;;1861189;75;21156;-79
2021/12/17 13:06:53;;;;;;;3.77;3.47;;;13.00;99.90;;;;;;1873779;75;21100;-79
2021/12/17 13:09:19;;;;;;;7.35;4.28;;;12.80;99.90;;;;;;1876612;76;21524;-79
2021/12/17 13:11:45;;;;;;;3.87;3.33;;;12.90;99.90;;;;;;1874388;76;21518;-79
2021/12/17 13:14:17;;;;;;;5.45;4.33;;;13.30;99.90;;;;;;1883197;76;21494;-79
2021/12/17 13:16:53;;;;;;;7.30;4.30;;;13.80;99.90;;;;;;1857594;76;21271;-80
2021/12/17 13:24:25;;;;;;;4.10;3.70;;;13.60;99.90;;;;;;1872058;75;21055;-79
2021/12/17 13:26:51;;;;;;;9.33;3.92;;;12.00;99.90;;;;;;1880526;76;21094;-79
2021/12/17 13:29:19;;;;;;;5.05;3.90;;;12.30;99.90;;;;;;1877960;76;21160;-78
2021/12/17 13:31:45;;;;;;;6.10;4.40;;;13.00;99.90;;;;;;1878144;76;21102;-78
2021/12/17 13:34:11;;;;;;;8.68;3.85;;;12.50;99.90;;;;;;1865994;75;21156;-78
2021/12/17 13:36:37;;;;;;;4.50;4.08;;;12.60;99.90;;;;;;1880114;76;21160;-78
2021/12/17 13:39:03;;;;;;;5.50;4.30;;;12.30;99.90;;;;;;1867210;75;21074;-79
2021/12/17 13:41:29;;;;;;;5.28;3.65;;;12.80;99.90;;;;;;1867262;75;21082;-78
2021/12/17 13:43:55;;;;;;;4.33;3.60;;;13.20;99.90;;;;;;1868146;76;21156;-79
2021/12/17 13:46:22;;;;;;;3.70;3.40;;;13.40;99.90;;;;;;1872123;75;21039;-79
2021/12/17 13:48:48;;;;;;;6.70;3.98;;;13.60;99.90;;;;;;1875204;75;21087;-78
2021/12/17 13:51:14;;;;;;;3.65;3.35;;;13.40;99.90;;;;;;1877585;75;21165;-79
2021/12/17 13:53:40;;;;;;;3.65;3.30;;;13.40;99.90;;;;;;1869749;76;21068;-78
2021/12/17 13:56:06;;;;;;;5.92;3.47;;;13.40;99.90;;;;;;1871338;76;21058;-77
2021/12/17 13:58:32;;;;;;;4.00;3.47;;;13.50;99.90;;;;;;1849109;76;21212;-76
2021/12/17 14:00:58;;;;;;;3.22;2.92;;;13.20;99.90;;;;;;1859703;76;21070;-78
2021/12/17 14:03:28;;;;;;;5.80;3.12;;;13.60;99.90;;;;;;1869428;75;21102;-76
2021/12/17 14:06:07;;;;;;;3.72;3.00;;;13.50;99.90;;;;;;1869555;75;21099;-76
2021/12/17 14:08:20;;;;;;;5.37;3.30;;;13.50;99.90;;;;;;1871452;76;21144;-74
2021/12/17 14:10:47;;;;;;;3.17;2.87;;;13.50;99.90;;;;;;1885484;75;21115;-75
2021/12/17 14:13:13;;;;;;;3.70;3.27;;;13.20;99.90;;;;;;1868930;75;21091;-74
2021/12/17 14:15:40;;;;;;;3.62;3.33;;;12.70;99.90;;;;;;1871383;76;21136;-75
2021/12/17 14:18:06;;;;;;;6.72;3.65;;;12.60;99.90;;;;;;1875786;74;21060;-76
2021/12/17 14:20:32;;;;;;;3.77;3.27;;;12.40;99.90;;;;;;1874762;76;21095;-73
2021/12/17 14:23:02;;;;;;;4.30;3.60;;;12.30;99.90;;;;;;1872890;76;21160;-75
2021/12/17 14:25:29;;;;;;;4.28;3.83;;;11.90;99.90;;;;;;1874289;75;21068;-71
2021/12/17 14:27:55;;;;;;;6.85;3.85;;;11.60;99.90;;;;;;1870417;75;21083;-70
2021/12/17 14:30:21;;;;;;;4.92;4.08;;;11.40;99.90;;;;;;1855278;76;21194;-70
2021/12/17 14:32:47;;;;;;;5.05;4.12;;;11.30;99.90;;;;;;1870587;76;21056;-69
2021/12/17 14:35:14;;;;;;;5.92;4.20;;;11.00;99.90;;;;;;1859273;76;21067;-71
2021/12/17 14:37:40;;;;;;;5.15;4.65;;;10.60;99.90;;;;;;1881855;76;21204;-69
2021/12/17 14:40:06;;;;;;;4.78;4.37;;;10.50;99.90;;;;;;1872438;76;21254;-68
2021/12/17 14:42:36;;;;;;;6.92;4.83;;;10.10;99.90;;;;;;1851946;76;21055;-71
2021/12/17 14:45:00;;;;;;;5.12;4.62;;;9.70;99.90;;;;;;1875597;75;21176;-70
2021/12/17 14:47:36;;;;;;;5.45;4.85;;;9.40;99.90;;;;;;1865961;76;21363;-71
2021/12/17 15:01:14;;;;;;;5.60;4.97;;;8.80;99.90;;;;;;1860764;76;21185;-71
2021/12/17 15:02:58;;;;;;;6.33;5.03;;;8.60;99.90;;;;;;1865140;76;21062;-70
2021/12/17 15:05:20;;;;;;;8.73;5.05;;;8.40;99.90;;;;;;1881239;76;21482;-71
2021/12/17 15:07:47;;;;;;;7.60;5.42;;;8.40;99.90;;;;;;1854971;75;21508;-72
2021/12/17 15:10:13;;;;;;;6.17;5.20;;;8.20;99.90;;;;;;1876565;76;21571;-71
2021/12/17 15:12:39;;;;;;;6.08;5.00;;;8.20;99.90;;;;;;1868207;76;21082;-71
2021/12/17 15:15:05;;;;;;;5.80;5.20;;;8.10;99.90;;;;;;1873906;76;21090;-71
2021/12/17 15:17:32;;;;;;;7.30;4.87;;;7.90;99.90;;;;;;1878620;75;21101;-71
2021/12/17 15:19:58;;;;;;;6.25;4.50;;;7.90;99.90;;;;;;1856574;75;21085;-71
2021/12/17 15:22:24;;;;;;;5.95;5.08;;;7.90;99.90;;;;;;1868901;76;21091;-72
2021/12/17 15:24:51;;;;;;;6.75;5.58;;;7.60;99.90;;;;;;1879704;76;21138;-72
2021/12/17 15:27:17;;;;;;;9.40;4.55;;;7.50;99.90;;;;;;1874606;76;21085;-71
2021/12/17 15:29:43;;;;;;;9.23;5.10;;;7.40;99.90;;;;;;1866683;76;21082;-72
2021/12/17 15:32:09;;;;;;;9.63;5.42;;;7.30;99.90;;;;;;1872549;75;21098;-72